createdAt,value
2019-04-29T00:02:11.465Z,4.67
2019-04-29T00:04:38.054Z,5.07
2019-04-29T00:07:05.383Z,4.60
2019-04-29T00:09:32.124Z,4.80
2019-04-29T00:11:58.777Z,5.10
2019-04-29T00:14:26.209Z,4.77
2019-04-29T00:17:03.315Z,4.67
2019-04-29T00:19:31.704Z,4.70
2019-04-29T00:21:59.374Z,4.80
2019-04-29T00:24:26.010Z,4.77
2019-04-29T00:26:52.524Z,4.60
2019-04-29T00:29:19.184Z,4.70
2019-04-29T00:31:45.946Z,4.50
2019-04-29T00:34:12.586Z,4.70
2019-04-29T00:36:41.017Z,4.63
2019-04-29T00:39:09.570Z,4.57
2019-04-29T00:41:37.873Z,4.93
2019-04-29T00:44:06.332Z,5.00
2019-04-29T00:46:33.121Z,4.83
2019-04-29T00:48:59.781Z,4.77
2019-04-29T00:51:26.382Z,4.60
2019-04-29T00:53:54.930Z,4.70
2019-04-29T00:56:21.215Z,4.87
2019-04-29T00:58:47.920Z,4.77
2019-04-29T01:01:16.419Z,4.77
2019-04-29T01:03:43.040Z,5.10
2019-04-29T01:06:09.750Z,4.37
2019-04-29T01:08:36.141Z,5.27
2019-04-29T01:11:03.086Z,5.37
2019-04-29T01:13:29.541Z,4.90
2019-04-29T01:15:56.108Z,5.03
2019-04-29T01:18:22.393Z,5.40
2019-04-29T01:20:48.945Z,5.67
2019-04-29T01:23:15.462Z,5.17
2019-04-29T01:25:43.701Z,4.83
2019-04-29T01:28:24.197Z,4.90
2019-04-29T01:30:59.708Z,5.50
2019-04-29T01:33:26.352Z,5.63
2019-04-29T01:36:09.755Z,5.60
2019-04-29T01:38:36.351Z,5.27
2019-04-29T01:41:23.169Z,5.30
2019-04-29T01:44:00.445Z,5.23
2019-04-29T01:46:28.085Z,4.80
2019-04-29T01:48:55.042Z,5.13
2019-04-29T01:51:21.665Z,5.03
2019-04-29T01:53:48.311Z,5.03
2019-04-29T01:56:14.721Z,4.90
2019-04-29T01:58:41.115Z,4.70
2019-04-29T02:01:07.521Z,4.83
2019-04-29T02:03:34.020Z,5.10
2019-04-29T02:06:00.560Z,5.10
2019-04-29T02:08:27.162Z,4.90
2019-04-29T02:10:53.720Z,5.30
2019-04-29T02:13:20.436Z,4.63
2019-04-29T02:15:46.784Z,4.80
2019-04-29T02:18:13.220Z,4.80
2019-04-29T02:20:39.701Z,4.67
2019-04-29T02:23:07.945Z,4.83
2019-04-29T02:25:39.047Z,5.23
2019-04-29T02:28:07.311Z,4.53
2019-04-29T02:30:45.479Z,4.80
2019-04-29T02:33:12.220Z,4.73
2019-04-29T02:35:39.207Z,4.50
2019-04-29T02:38:07.761Z,4.90
2019-04-29T02:40:44.873Z,4.73
2019-04-29T02:43:13.350Z,5.03
2019-04-29T02:45:40.047Z,4.60
2019-04-29T02:48:06.686Z,4.47
2019-04-29T02:50:33.289Z,4.30
2019-04-29T02:52:59.940Z,4.33
2019-04-29T02:55:28.436Z,4.13
2019-04-29T02:58:02.823Z,4.20
2019-04-29T03:00:47.660Z,4.73
2019-04-29T03:03:19.039Z,4.73
2019-04-29T03:05:47.539Z,4.43
2019-04-29T03:08:14.150Z,4.60
2019-04-29T03:10:40.660Z,4.87
2019-04-29T03:13:09.574Z,4.93
2019-04-29T03:15:41.000Z,4.60
2019-04-29T03:18:07.685Z,4.40
2019-04-29T03:20:36.284Z,4.77
2019-04-29T03:23:13.352Z,4.40
2019-04-29T03:25:40.053Z,5.13
2019-04-29T03:28:06.632Z,5.33
2019-04-29T03:30:33.282Z,4.83
2019-04-29T03:32:59.800Z,5.20
2019-04-29T03:35:26.239Z,4.97
2019-04-29T03:37:52.751Z,5.60
2019-04-29T03:40:19.282Z,5.60
2019-04-29T03:42:45.781Z,6.07
2019-04-29T03:45:12.419Z,5.97
2019-04-29T03:47:38.911Z,5.67
2019-04-29T03:50:05.506Z,5.93
2019-04-29T03:52:31.783Z,6.20
2019-04-29T03:54:58.081Z,7.70
2019-04-29T03:57:24.732Z,7.10
2019-04-29T03:59:51.345Z,6.43
2019-04-29T04:02:22.514Z,7.78
2019-04-29T04:04:56.535Z,6.37
2019-04-29T04:07:41.647Z,6.43
2019-04-29T04:10:08.887Z,6.40
2019-04-29T04:12:35.425Z,6.50
2019-04-29T04:15:04.028Z,5.73
2019-04-29T04:17:41.137Z,6.20
2019-04-29T04:20:08.167Z,5.50
2019-04-29T04:22:47.040Z,5.50
2019-04-29T04:25:14.860Z,6.00
2019-04-29T04:27:41.727Z,5.60
2019-04-29T04:30:08.863Z,5.50
2019-04-29T04:32:35.293Z,6.20
2019-04-29T04:35:02.569Z,5.23
2019-04-29T04:37:28.862Z,5.90
2019-04-29T04:39:55.483Z,5.90
2019-04-29T04:42:21.772Z,5.53
2019-04-29T04:44:48.415Z,5.60
2019-04-29T04:47:16.622Z,5.40
2019-04-29T04:49:43.132Z,5.63
2019-04-29T04:52:09.722Z,5.67
2019-04-29T04:54:36.030Z,6.40
2019-04-29T04:57:02.669Z,5.63
2019-04-29T04:59:29.147Z,6.10
2019-04-29T05:01:55.740Z,6.28
2019-04-29T05:04:22.052Z,5.70
2019-04-29T05:06:48.380Z,5.93
2019-04-29T05:09:14.682Z,6.40
2019-04-29T05:11:41.172Z,6.03
2019-04-29T05:14:07.579Z,6.40
2019-04-29T05:16:34.091Z,6.00
2019-04-29T05:19:00.517Z,6.20
2019-04-29T05:21:27.116Z,6.53
2019-04-29T05:23:53.504Z,6.63
2019-04-29T05:26:19.937Z,6.50
2019-04-29T05:28:46.341Z,5.97
2019-04-29T05:31:12.887Z,5.90
2019-04-29T05:33:39.300Z,6.07
2019-04-29T05:36:13.760Z,5.90
2019-04-29T05:38:42.141Z,6.53
2019-04-29T05:41:08.434Z,6.57
2019-04-29T05:43:43.110Z,6.27
2019-04-29T05:46:11.474Z,6.87
2019-04-29T05:48:37.820Z,6.40
2019-04-29T05:51:06.160Z,6.83
2019-04-29T05:53:34.477Z,6.77
2019-04-29T05:56:00.840Z,6.83
2019-04-29T05:58:27.394Z,7.00
2019-04-29T06:00:58.634Z,6.93
2019-04-29T06:03:25.046Z,6.50
2019-04-29T06:05:51.525Z,6.87
2019-04-29T06:08:18.047Z,8.07
2019-04-29T06:10:44.463Z,7.00
2019-04-29T06:13:10.902Z,7.00
2019-04-29T06:15:37.557Z,7.80
2019-04-29T06:18:04.139Z,7.60
2019-04-29T06:20:30.743Z,7.63
2019-04-29T06:22:57.248Z,7.73
2019-04-29T06:25:23.523Z,6.77
2019-04-29T06:27:50.056Z,8.00
2019-04-29T06:30:17.281Z,7.50
2019-04-29T06:32:43.871Z,8.50
2019-04-29T06:35:14.217Z,8.70
2019-04-29T06:37:39.187Z,8.90
2019-04-29T06:40:06.933Z,9.53
2019-04-29T06:42:33.672Z,9.23
2019-04-29T06:45:00.179Z,8.80
2019-04-29T06:47:26.578Z,10.17
2019-04-29T06:49:52.997Z,10.20
2019-04-29T06:52:19.429Z,9.70
2019-04-29T06:54:46.137Z,10.03
2019-04-29T06:57:12.628Z,10.13
2019-04-29T06:59:42.933Z,9.80
2019-04-29T07:02:09.392Z,9.90
2019-04-29T07:04:38.712Z,10.63
2019-04-29T07:07:04.311Z,9.60
2019-04-29T07:09:50.703Z,9.80
2019-04-29T07:12:17.313Z,9.33
2019-04-29T07:14:43.753Z,10.70
2019-04-29T07:17:10.332Z,9.70
2019-04-29T07:19:36.868Z,11.70
2019-04-29T07:22:03.581Z,9.80
2019-04-29T07:24:29.977Z,9.83
2019-04-29T07:26:57.899Z,10.33
2019-04-29T07:29:30.867Z,10.20
2019-04-29T07:31:53.327Z,13.13
2019-04-29T07:34:19.757Z,13.13
2019-04-29T07:36:46.239Z,14.30
2019-04-29T07:39:12.523Z,12.97
2019-04-29T07:41:39.062Z,11.60
2019-04-29T07:44:05.398Z,10.80
2019-04-29T07:46:36.324Z,11.33
2019-04-29T07:49:05.581Z,16.43
2019-04-29T07:51:34.892Z,16.77
2019-04-29T07:53:59.558Z,17.20
2019-04-29T07:56:25.916Z,13.63
2019-04-29T07:58:52.409Z,18.40
2019-04-29T08:01:23.901Z,17.80
2019-04-29T08:03:47.193Z,20.87
2019-04-29T08:06:14.019Z,17.57
2019-04-29T08:08:53.832Z,17.87
2019-04-29T08:11:10.623Z,19.13
2019-04-29T08:13:38.065Z,14.13
2019-04-29T08:16:04.717Z,19.33
2019-04-29T08:18:31.121Z,19.70
2019-04-29T08:20:57.808Z,19.53
2019-04-29T08:23:24.189Z,19.00
2019-04-29T08:25:51.066Z,16.80
2019-04-29T08:28:17.703Z,13.40
2019-04-29T08:30:45.867Z,13.23
2019-04-29T08:33:13.268Z,17.57
2019-04-29T08:35:39.792Z,20.33
2019-04-29T08:38:06.418Z,17.70
2019-04-29T08:40:34.308Z,18.53
2019-04-29T08:43:15.904Z,18.30
2019-04-29T08:45:45.022Z,13.83
2019-04-29T08:48:11.673Z,18.17
2019-04-29T08:50:38.169Z,14.23
2019-04-29T08:53:04.791Z,20.87
2019-04-29T08:55:35.996Z,20.50
2019-04-29T08:57:59.728Z,18.63
2019-04-29T09:00:26.454Z,20.83
2019-04-29T09:02:52.983Z,19.57
2019-04-29T09:05:19.689Z,18.27
2019-04-29T09:07:46.299Z,17.33
2019-04-29T09:10:19.282Z,18.03
2019-04-29T09:12:45.724Z,21.23
2019-04-29T09:15:13.229Z,17.57
2019-04-29T09:17:39.688Z,18.27
2019-04-29T09:20:06.877Z,17.23
2019-04-29T09:22:35.162Z,16.30
2019-04-29T09:25:21.377Z,18.53
2019-04-29T09:27:50.804Z,24.13
2019-04-29T09:30:17.763Z,21.30
2019-04-29T09:32:44.297Z,18.63
2019-04-29T09:35:11.009Z,19.37
2019-04-29T09:37:37.394Z,14.73
2019-04-29T09:40:08.203Z,11.37
2019-04-29T09:42:36.701Z,11.67
2019-04-29T09:45:06.818Z,12.17
2019-04-29T09:47:33.643Z,13.13
2019-04-29T09:50:00.377Z,10.87
2019-04-29T09:52:27.076Z,12.80
2019-04-29T09:54:53.519Z,11.40
2019-04-29T09:57:19.933Z,12.10
2019-04-29T10:00:00.123Z,10.27
2019-04-29T10:02:36.453Z,9.87
2019-04-29T10:05:23.164Z,9.83
2019-04-29T10:07:49.911Z,10.03
2019-04-29T10:10:16.647Z,9.70
2019-04-29T10:12:43.259Z,9.40
2019-04-29T10:15:11.943Z,10.50
2019-04-29T10:17:50.950Z,10.67
2019-04-29T10:20:19.238Z,8.07
2019-04-29T10:22:45.953Z,9.30
2019-04-29T10:25:12.912Z,10.20
2019-04-29T10:27:39.443Z,10.00
2019-04-29T10:30:18.818Z,9.47
2019-04-29T10:32:45.322Z,8.87
2019-04-29T10:35:12.504Z,8.30
2019-04-29T10:37:38.994Z,9.37
2019-04-29T10:40:11.431Z,9.60
2019-04-29T10:42:38.485Z,8.70
2019-04-29T10:45:11.832Z,7.63
2019-04-29T10:47:45.881Z,8.50
2019-04-29T10:50:15.415Z,9.23
2019-04-29T10:52:43.527Z,7.53
2019-04-29T10:55:11.208Z,8.37
2019-04-29T10:57:38.253Z,9.30
2019-04-29T11:00:10.188Z,8.90
2019-04-29T11:02:38.043Z,9.00
2019-04-29T11:05:18.322Z,9.43
2019-04-29T11:07:46.839Z,8.13
2019-04-29T11:10:24.832Z,8.50
2019-04-29T11:12:44.384Z,9.53
2019-04-29T11:15:13.934Z,8.63
2019-04-29T11:17:44.638Z,8.63
2019-04-29T11:20:11.222Z,8.07
2019-04-29T11:22:39.455Z,8.07
2019-04-29T11:25:16.677Z,8.47
2019-04-29T11:27:56.110Z,8.83
2019-04-29T11:30:28.464Z,8.50
2019-04-29T11:33:04.841Z,7.90
2019-04-29T11:35:38.853Z,7.77
2019-04-29T11:38:07.300Z,7.63
2019-04-29T11:40:43.163Z,7.37
2019-04-29T11:43:03.920Z,7.87
2019-04-29T11:45:33.805Z,7.80
2019-04-29T11:47:59.033Z,8.40
2019-04-29T11:50:33.405Z,7.60
2019-04-29T11:53:00.161Z,7.43
2019-04-29T11:55:26.888Z,7.67
2019-04-29T11:57:55.314Z,7.27
2019-04-29T12:00:26.645Z,7.77
2019-04-29T12:02:55.243Z,8.37
2019-04-29T12:05:29.567Z,7.07
2019-04-29T12:07:56.042Z,7.60
2019-04-29T12:10:22.810Z,7.23
2019-04-29T12:12:49.605Z,8.67
2019-04-29T12:15:35.016Z,7.07
2019-04-29T12:18:15.338Z,7.43
2019-04-29T12:20:43.998Z,7.17
2019-04-29T12:23:15.286Z,7.30
2019-04-29T12:25:39.494Z,7.07
2019-04-29T12:28:19.020Z,6.20
2019-04-29T12:30:36.938Z,6.23
2019-04-29T12:33:05.365Z,6.13
2019-04-29T12:35:33.875Z,6.23
2019-04-29T12:38:18.840Z,5.97
2019-04-29T12:41:03.580Z,6.30
2019-04-29T12:43:53.421Z,6.50
2019-04-29T12:46:24.780Z,6.33
2019-04-29T12:48:51.384Z,6.43
2019-04-29T12:51:17.953Z,6.07
2019-04-29T12:53:44.856Z,5.67
2019-04-29T12:56:12.809Z,6.00
2019-04-29T12:58:39.449Z,6.20
2019-04-29T13:01:17.158Z,6.27
2019-04-29T13:03:48.203Z,5.70
2019-04-29T13:06:23.946Z,5.63
2019-04-29T13:08:52.657Z,5.37
2019-04-29T13:11:20.956Z,4.83
2019-04-29T13:13:51.500Z,5.90
2019-04-29T13:16:28.629Z,5.70
2019-04-29T13:19:20.125Z,5.03
2019-04-29T13:21:43.822Z,5.07
2019-04-29T13:24:22.932Z,5.10
2019-04-29T13:26:42.584Z,4.87
2019-04-29T13:29:07.669Z,4.40
2019-04-29T13:31:38.466Z,4.63
2019-04-29T13:34:22.395Z,3.60
2019-04-29T13:36:33.463Z,3.90
2019-04-29T13:39:00.226Z,3.47
2019-04-29T13:41:26.994Z,3.03
2019-04-29T13:44:04.426Z,3.20
2019-04-29T13:46:28.896Z,3.73
2019-04-29T13:49:12.177Z,3.30
2019-04-29T13:51:39.577Z,4.10
2019-04-29T13:54:06.611Z,3.10
2019-04-29T13:56:54.200Z,4.40
2019-04-29T13:59:09.646Z,4.60
2019-04-29T14:02:00.065Z,3.10
2019-04-29T14:04:25.100Z,3.00
2019-04-29T14:06:56.759Z,3.40
2019-04-29T14:09:17.810Z,4.00
2019-04-29T14:11:44.480Z,3.90
2019-04-29T14:14:11.134Z,3.50
2019-04-29T14:16:37.777Z,3.80
2019-04-29T14:19:04.508Z,3.87
2019-04-29T14:21:31.888Z,3.70
2019-04-29T14:23:58.496Z,3.23
2019-04-29T14:26:25.029Z,3.43
2019-04-29T14:28:51.851Z,3.53
2019-04-29T14:31:22.491Z,3.03
2019-04-29T14:33:49.217Z,3.40
2019-04-29T14:36:19.929Z,3.23
2019-04-29T14:38:44.782Z,3.43
2019-04-29T14:41:14.196Z,3.00
2019-04-29T14:43:42.109Z,3.17
2019-04-29T14:46:19.429Z,2.90
2019-04-29T14:49:04.282Z,3.30
2019-04-29T14:51:36.450Z,3.20
2019-04-29T14:54:00.976Z,3.60
2019-04-29T14:56:25.548Z,3.37
2019-04-29T14:59:05.538Z,3.10
2019-04-29T15:01:25.159Z,3.47
2019-04-29T15:03:53.740Z,3.30
2019-04-29T15:06:20.399Z,3.03
2019-04-29T15:08:47.140Z,2.80
2019-04-29T15:11:13.800Z,2.70
2019-04-29T15:13:43.199Z,2.93
2019-04-29T15:16:14.009Z,2.83
2019-04-29T15:18:50.780Z,3.13
2019-04-29T15:21:32.572Z,2.80
2019-04-29T15:23:54.586Z,3.27
2019-04-29T15:26:21.153Z,3.20
2019-04-29T15:28:50.372Z,2.97
2019-04-29T15:31:19.573Z,3.00
2019-04-29T15:33:46.055Z,3.13
2019-04-29T15:36:12.550Z,3.23
2019-04-29T15:38:39.193Z,2.90
2019-04-29T15:41:06.105Z,3.27
2019-04-29T15:43:46.599Z,3.17
2019-04-29T15:46:01.381Z,3.03
2019-04-29T15:48:28.069Z,3.13
2019-04-29T15:50:54.799Z,3.50
2019-04-29T15:53:21.541Z,3.83
2019-04-29T15:55:48.020Z,3.70
2019-04-29T15:58:14.730Z,3.27
2019-04-29T16:00:41.651Z,4.40
2019-04-29T16:03:08.304Z,4.33
2019-04-29T16:05:56.139Z,3.77
2019-04-29T16:08:15.977Z,4.67
2019-04-29T16:11:01.170Z,4.80
2019-04-29T16:13:29.314Z,3.47
2019-04-29T16:15:56.304Z,4.80
2019-04-29T16:18:22.755Z,4.47
2019-04-29T16:20:53.948Z,4.97
2019-04-29T16:23:17.823Z,4.20
2019-04-29T16:25:46.355Z,5.13
2019-04-29T16:28:13.496Z,4.90
2019-04-29T16:30:40.394Z,3.80
2019-04-29T16:33:14.055Z,4.60
2019-04-29T16:35:36.090Z,5.57
2019-04-29T16:38:05.770Z,5.37
2019-04-29T16:40:33.819Z,5.50
2019-04-29T16:43:06.535Z,4.10
2019-04-29T16:45:38.411Z,5.93
2019-04-29T16:48:05.226Z,5.57
2019-04-29T16:50:32.116Z,5.27
2019-04-29T16:52:58.732Z,3.63
2019-04-29T16:55:25.393Z,5.53
2019-04-29T16:57:52.168Z,7.10
2019-04-29T17:00:21.242Z,4.60
2019-04-29T17:02:47.835Z,4.33
2019-04-29T17:05:14.518Z,4.23
2019-04-29T17:07:41.106Z,5.50
2019-04-29T17:10:20.553Z,7.00
2019-04-29T17:12:49.084Z,6.30
2019-04-29T17:15:24.751Z,7.73
2019-04-29T17:17:44.571Z,6.40
2019-04-29T17:20:12.438Z,7.67
2019-04-29T17:22:43.366Z,7.17
2019-04-29T17:25:09.761Z,7.63
2019-04-29T17:27:42.355Z,4.63
2019-04-29T17:30:25.748Z,7.43
2019-04-29T17:33:01.629Z,8.60
2019-04-29T17:35:30.496Z,8.57
2019-04-29T17:37:57.038Z,8.70
2019-04-29T17:40:24.692Z,7.30
2019-04-29T17:42:53.387Z,7.43
2019-04-29T17:45:30.600Z,6.30
2019-04-29T17:47:52.559Z,8.07
2019-04-29T17:50:29.873Z,5.57
2019-04-29T17:52:49.838Z,8.90
2019-04-29T17:55:21.456Z,8.70
2019-04-29T17:57:58.844Z,8.10
2019-04-29T18:00:43.911Z,8.20
2019-04-29T18:03:12.990Z,7.80
2019-04-29T18:05:57.662Z,8.97
2019-04-29T18:08:38.575Z,11.13
2019-04-29T18:11:08.155Z,6.93
2019-04-29T18:13:35.293Z,6.40
2019-04-29T18:16:04.568Z,4.60
2019-04-29T18:18:45.473Z,8.27
2019-04-29T18:21:06.610Z,10.50
2019-04-29T18:23:55.535Z,9.50
2019-04-29T18:26:22.114Z,10.93
2019-04-29T18:28:49.005Z,8.27
2019-04-29T18:31:15.616Z,8.50
2019-04-29T18:33:42.393Z,7.50
2019-04-29T18:36:19.625Z,9.83
2019-04-29T18:38:37.806Z,10.33
2019-04-29T18:41:04.475Z,12.07
2019-04-29T18:43:31.325Z,11.63
2019-04-29T18:45:59.124Z,11.67
2019-04-29T18:48:27.155Z,12.00
2019-04-29T18:50:56.892Z,12.43
2019-04-29T18:53:22.796Z,12.43
2019-04-29T18:55:49.513Z,10.70
2019-04-29T18:58:16.368Z,11.20
2019-04-29T19:00:46.151Z,11.67
2019-04-29T19:03:14.880Z,11.77
2019-04-29T19:05:49.711Z,13.13
2019-04-29T19:08:22.787Z,11.20
2019-04-29T19:10:49.859Z,8.73
2019-04-29T19:13:16.518Z,11.10
2019-04-29T19:15:45.031Z,12.77
2019-04-29T19:18:12.465Z,12.60
2019-04-29T19:20:39.319Z,12.13
2019-04-29T19:23:10.026Z,13.10
2019-04-29T19:25:35.400Z,10.23
2019-04-29T19:28:11.938Z,8.00
2019-04-29T19:30:31.073Z,12.13
2019-04-29T19:33:00.186Z,8.17
2019-04-29T19:35:29.486Z,13.30
2019-04-29T19:37:55.020Z,12.53
2019-04-29T19:40:21.661Z,11.77
2019-04-29T19:42:48.290Z,11.00
2019-04-29T19:45:17.237Z,11.57
2019-04-29T19:47:48.207Z,11.47
2019-04-29T19:50:16.611Z,10.63
2019-04-29T19:52:41.269Z,9.87
2019-04-29T19:55:07.953Z,7.77
2019-04-29T19:57:42.202Z,10.30
2019-04-29T20:00:07.976Z,9.73
2019-04-29T20:02:36.202Z,7.70
2019-04-29T20:05:08.834Z,8.47
2019-04-29T20:07:41.275Z,9.93
2019-04-29T20:10:09.740Z,7.37
2019-04-29T20:12:36.976Z,10.70
2019-04-29T20:15:07.681Z,9.37
2019-04-29T20:17:47.113Z,10.47
2019-04-29T20:20:12.281Z,11.30
2019-04-29T20:22:43.421Z,11.47
2019-04-29T20:25:07.956Z,11.13
2019-04-29T20:27:37.203Z,10.73
2019-04-29T20:30:15.761Z,10.80
2019-04-29T20:32:36.574Z,12.37
2019-04-29T20:35:08.511Z,11.57
2019-04-29T20:37:36.397Z,12.10
2019-04-29T20:40:06.400Z,10.33
2019-04-29T20:42:33.206Z,8.47
2019-04-29T20:45:00.153Z,10.40
2019-04-29T20:47:37.421Z,8.83
2019-04-29T20:49:55.592Z,8.90
2019-04-29T20:52:39.655Z,9.20
2019-04-29T20:55:09.201Z,11.03
2019-04-29T20:57:35.947Z,12.70
2019-04-29T21:00:06.423Z,10.50
2019-04-29T21:02:35.369Z,10.17
2019-04-29T21:05:02.167Z,11.63
2019-04-29T21:07:28.864Z,12.97
2019-04-29T21:09:55.955Z,13.07
2019-04-29T21:12:41.516Z,11.03
2019-04-29T21:15:22.473Z,11.57
2019-04-29T21:17:49.109Z,13.60
2019-04-29T21:20:16.676Z,11.40
2019-04-29T21:22:43.256Z,13.60
2019-04-29T21:25:09.916Z,15.83
2019-04-29T21:27:36.570Z,11.50
2019-04-29T21:30:06.003Z,13.30
2019-04-29T21:32:37.087Z,16.77
2019-04-29T21:35:19.776Z,11.00
2019-04-29T21:37:48.250Z,10.63
2019-04-29T21:40:31.682Z,16.40
2019-04-29T21:43:00.252Z,12.50
2019-04-29T21:45:27.014Z,11.47
2019-04-29T21:47:54.674Z,10.50
2019-04-29T21:50:21.489Z,14.03
2019-04-29T21:52:48.121Z,10.83
2019-04-29T21:55:16.163Z,13.57
2019-04-29T21:57:42.895Z,14.83
2019-04-29T22:00:11.154Z,14.37
2019-04-29T22:02:41.439Z,18.80
2019-04-29T22:05:09.505Z,13.10
2019-04-29T22:07:35.762Z,15.70
2019-04-29T22:10:05.643Z,16.33
2019-04-29T22:12:32.169Z,16.03
2019-04-29T22:14:59.497Z,13.97
2019-04-29T22:17:32.786Z,14.30
2019-04-29T22:19:57.449Z,17.23
2019-04-29T22:22:24.365Z,12.27
2019-04-29T22:24:51.358Z,14.40
2019-04-29T22:27:17.895Z,17.50
2019-04-29T22:29:45.416Z,15.83
2019-04-29T22:32:15.097Z,19.50
2019-04-29T22:34:42.218Z,18.07
2019-04-29T22:37:08.847Z,16.50
2019-04-29T22:39:35.802Z,15.17
2019-04-29T22:42:07.673Z,16.93
2019-04-29T22:44:36.032Z,14.73
2019-04-29T22:47:05.615Z,15.57
2019-04-29T22:49:33.091Z,17.20
2019-04-29T22:51:59.512Z,20.83
2019-04-29T22:54:26.137Z,14.90
2019-04-29T22:56:54.681Z,15.10
2019-04-29T22:59:21.031Z,17.80
2019-04-29T23:01:50.496Z,14.83
2019-04-29T23:04:17.911Z,14.83
2019-04-29T23:06:47.889Z,20.03
2019-04-29T23:09:13.212Z,20.87
2019-04-29T23:11:40.808Z,15.40
2019-04-29T23:14:10.051Z,16.03
2019-04-29T23:16:37.013Z,18.23
2019-04-29T23:19:05.142Z,15.40
2019-04-29T23:21:42.865Z,15.47
2019-04-29T23:24:13.635Z,19.33
2019-04-29T23:26:42.576Z,20.23
2019-04-29T23:29:09.131Z,18.50
2019-04-29T23:31:36.990Z,22.93
2019-04-29T23:34:05.702Z,23.97
2019-04-29T23:36:51.981Z,20.80
2019-04-29T23:39:18.594Z,22.33
2019-04-29T23:41:45.192Z,20.10
2019-04-29T23:44:11.519Z,27.37
2019-04-29T23:46:37.939Z,23.33
2019-04-29T23:49:06.630Z,23.03
2019-04-29T23:51:34.542Z,22.27
2019-04-29T23:54:05.824Z,24.53
2019-04-29T23:56:31.540Z,25.17
2019-04-29T23:59:18.185Z,24.43
